createdAt,value
2023-09-01T00:09:34.707Z,6.10
2023-09-01T00:19:35.268Z,5.80
2023-09-01T00:29:35.786Z,6.60
2023-09-01T00:39:36.384Z,5.30
2023-09-01T00:49:36.895Z,5.80
2023-09-01T00:59:37.466Z,4.90
2023-09-01T01:09:37.989Z,5.20
2023-09-01T01:19:38.537Z,6.00
2023-09-01T01:29:39.069Z,5.50
2023-09-01T01:39:39.642Z,5.60
2023-09-01T01:49:40.152Z,6.00
2023-09-01T01:59:40.738Z,8.10
2023-09-01T02:09:41.316Z,6.50
2023-09-01T02:19:41.875Z,6.00
2023-09-01T02:29:42.360Z,6.50
2023-09-01T02:39:42.942Z,8.60
2023-09-01T02:49:43.449Z,6.20
2023-09-01T02:59:44.026Z,6.50
2023-09-01T03:09:44.542Z,6.40
2023-09-01T03:19:45.145Z,7.50
2023-09-01T03:29:45.669Z,6.50
2023-09-01T03:39:53.250Z,8.10
2023-09-01T03:49:46.753Z,7.60
2023-09-01T03:59:47.255Z,8.20
2023-09-01T04:09:47.888Z,7.30
2023-09-01T04:19:48.398Z,6.90
2023-09-01T04:29:59.317Z,7.40
2023-09-01T04:39:50.832Z,8.10
2023-09-01T04:49:50.295Z,8.30
2023-09-01T04:59:50.817Z,9.50
2023-09-01T05:09:51.292Z,8.70
2023-09-01T05:19:51.797Z,7.80
2023-09-01T05:29:52.284Z,6.90
2023-09-01T05:39:52.795Z,7.90
2023-09-01T05:49:53.256Z,9.00
2023-09-01T05:59:53.788Z,9.40
2023-09-01T06:09:54.257Z,16.90
2023-09-01T06:19:54.776Z,9.70
2023-09-01T06:29:55.222Z,10.40
2023-09-01T06:39:55.783Z,12.50
2023-09-01T06:49:56.241Z,8.10
2023-09-01T06:59:56.812Z,11.70
2023-09-01T07:09:57.257Z,11.80
2023-09-01T07:19:57.798Z,9.50
2023-09-01T07:29:58.281Z,11.60
2023-09-01T07:39:58.753Z,10.70
2023-09-01T07:49:59.245Z,10.80
2023-09-01T07:59:59.775Z,7.70
2023-09-01T08:10:00.278Z,10.20
2023-09-01T08:20:00.784Z,8.30
2023-09-01T08:30:01.247Z,13.10
2023-09-01T08:40:01.818Z,8.70
2023-09-01T08:50:02.282Z,10.10
2023-09-01T09:00:02.840Z,9.80
2023-09-01T09:10:03.328Z,10.10
2023-09-01T09:20:03.878Z,10.50
2023-09-01T09:30:04.388Z,8.20
2023-09-01T09:40:11.891Z,7.60
2023-09-01T09:50:05.360Z,8.30
2023-09-01T10:00:05.855Z,7.00
2023-09-01T10:10:06.332Z,8.10
2023-09-01T10:20:06.822Z,8.70
2023-09-01T10:30:07.620Z,9.80
2023-09-01T10:40:08.148Z,7.40
2023-09-01T10:50:08.685Z,8.20
2023-09-01T11:00:09.924Z,8.30
2023-09-01T11:10:10.325Z,8.50
2023-09-01T11:20:10.361Z,11.60
2023-09-01T11:30:10.858Z,10.20
2023-09-01T11:40:11.445Z,7.30
2023-09-01T11:50:11.909Z,6.70
2023-09-01T12:00:12.412Z,8.80
2023-09-01T12:10:13.265Z,10.00
2023-09-01T12:20:13.807Z,6.90
2023-09-01T12:30:14.327Z,7.40
2023-09-01T12:40:14.825Z,8.50
2023-09-01T12:50:15.337Z,12.10
2023-09-01T13:00:15.849Z,7.60
2023-09-01T13:10:16.357Z,12.70
2023-09-01T13:20:16.865Z,7.70
2023-09-01T13:30:17.532Z,7.70
2023-09-01T13:40:18.026Z,14.60
2023-09-01T13:50:18.502Z,8.00
2023-09-01T14:00:19.021Z,8.00
2023-09-01T14:10:19.552Z,7.80
2023-09-01T14:20:20.004Z,8.10
2023-09-01T14:30:20.474Z,7.00
2023-09-01T14:40:21.013Z,8.20
2023-09-01T14:50:21.493Z,8.70
2023-09-01T15:00:22.101Z,7.50
2023-09-01T15:10:22.562Z,7.80
2023-09-01T15:20:23.070Z,6.40
2023-09-01T15:30:23.531Z,7.00
2023-09-01T15:40:24.137Z,7.70
2023-09-01T15:50:39.290Z,9.80
2023-09-01T16:00:26.522Z,9.70
2023-09-01T16:10:26.059Z,8.40
2023-09-01T16:20:26.575Z,7.60
2023-09-01T16:30:27.052Z,13.70
2023-09-01T16:40:27.560Z,8.20
2023-09-01T16:50:28.296Z,8.30
2023-09-01T17:00:28.786Z,8.30
2023-09-01T17:10:29.278Z,9.60
2023-09-01T17:20:29.817Z,8.60
2023-09-01T17:30:30.356Z,8.60
2023-09-01T17:40:30.861Z,9.90
2023-09-01T17:50:38.351Z,17.60
2023-09-01T18:00:31.840Z,18.30
2023-09-01T18:10:32.312Z,24.30
2023-09-01T18:20:32.839Z,20.00
2023-09-01T18:30:33.351Z,58.10
2023-09-01T18:40:33.905Z,11.60
2023-09-01T18:50:34.470Z,13.20
2023-09-01T19:00:35.052Z,13.90
2023-09-01T19:10:35.605Z,12.60
2023-09-01T19:20:36.150Z,17.60
2023-09-01T19:30:36.666Z,14.80
2023-09-01T19:40:37.233Z,17.30
2023-09-01T19:50:37.772Z,17.50
2023-09-01T20:00:38.358Z,18.40
2023-09-01T20:10:38.856Z,21.20
2023-09-01T20:20:39.430Z,20.40
2023-09-01T20:30:39.942Z,19.00
2023-09-01T20:40:40.479Z,21.10
2023-09-01T20:50:41.140Z,19.90
2023-09-01T21:00:41.686Z,18.30
2023-09-01T21:10:42.223Z,20.50
2023-09-01T21:20:42.769Z,18.90
2023-09-01T21:30:43.301Z,19.30
2023-09-01T21:40:43.866Z,21.10
2023-09-01T21:50:44.385Z,21.40
2023-09-01T22:00:45.017Z,24.10
2023-09-01T22:10:45.526Z,22.00
2023-09-01T22:20:46.097Z,25.20
2023-09-01T22:30:46.676Z,20.90
2023-09-01T22:40:47.235Z,21.70
2023-09-01T22:50:47.749Z,20.40
2023-09-01T23:00:48.338Z,26.60
2023-09-01T23:10:48.879Z,23.70
2023-09-01T23:20:49.449Z,21.70
2023-09-01T23:30:49.953Z,23.50
2023-09-01T23:40:50.526Z,23.90
2023-09-01T23:50:58.054Z,23.60
